Wakarusa, IN (46573)

12:12 AM EDT on August 30, 2015 (GMT -0400)
Heather Lake Subdivision | | Change Station
CLOSE
Current Station
Personal Weather Station
Location: Osceola, IN
Elevation: 741 ft
Nearby Weather Stations

Elev 741 ft 41.64 °N, 86.06 °W | Updated 32 seconds ago

Overcast
Overcast
67.0 °F
Feels Like 67.0 °F
N
0.0
Wind Variable Wind from SSW
Gusts 3.0 mph

Today
High -- | Low -- °F
--% Chance of Precip.
Yesterday
High -- | Low -- °F
Precip. -- in
7:08 AM 8:21 PM
Full, 100% visible
Pressure 30.03 in
Visibility 6.0 miles
Clouds Mostly Cloudy 5500 ft
Overcast 10000 ft
Dew Point 66 °F
Humidity 99%
Rainfall 0.00 in
Snow Depth Not available.
UV 0 out of 12
Pollen 4.20 out of 12
Air Quality Not available.
Flu Activity Not available.
METAR KGSH 300353Z AUTO 16006KT 6SM BR BKN055 OVC100 21/19 A3004 RMK AO2 SLP168 T02060189
Pressure 30.03 in
Visibility 6.0 miles
Clouds Mostly Cloudy 5500 ft
Overcast 10000 ft
Dew Point 66 °F
Humidity 99%
Rainfall 0.00 in
Snow Depth Not available.
UV 0 out of 12
Pollen 4.20 out of 12
Air Quality Not available.
Flu Activity Not available.
METAR KGSH 300353Z AUTO 16006KT 6SM BR BKN055 OVC100 21/19 A3004 RMK AO2 SLP168 T02060189

10-Day Weather Forecast

×

Almanac

Astronomy

Aug. 30, 2015 Rise Set
Actual Time
Civil Twilight
Nautical Twilight
Astronomical Twilight
Moon
Length of Visible Light
Length of Day
Tomorrow will be .
, % of the Moon is Illuminated

Today's Extremes

State Highs State Lows

Community

WunderPhotos

Upload Photos

1,850,880 photos uploaded!

WunderBlogs® & News

Nearby

Air Quality

  Air Quality AQ Index Pollutant
Not available.

Snow Depth

Station Depth Elevation

Earthquake Activity

City Distance Mag. Time & Date
Minimum magnitude displayed is 2.5.

Coastal Water Temperatures

Place Temperature

Stations

Nearby Weather Stations

Station Location Temp. Windchill Dew Point Humidity Wind Precip. Elev Updated Type